Time;durP1;ratioP1;P1;durP2;ratioP2;P2;SDS_P1;SDS_P2;PMS_P1;PMS_P2;Temp;Humidity;BMP_temperature;BMP_pressure;BME280_temperature;BME280_humidity;BME280_pressure;Samples;Min_cycle;Max_cycle;Signal;HPM_P1;HPM_P2
2022/01/23 00:02:13;;;;;;;8.48;5.95;;;8.20;74.50;;;;;;4997828;28;20026;-70
2022/01/23 00:04:39;;;;;;;12.10;6.57;;;8.10;74.20;;;;;;4999982;28;20073;-71
2022/01/23 00:07:06;;;;;;;8.98;6.07;;;8.10;74.50;;;;;;5013446;28;20546;-71
2022/01/23 00:09:32;;;;;;;8.65;6.47;;;8.10;74.70;;;;;;5000952;28;20032;-71
2022/01/23 00:12:02;;;;;;;10.63;6.72;;;8.10;74.70;;;;;;5010489;28;20109;-71
2022/01/23 00:17:18;;;;;;;12.57;7.18;;;8.20;74.40;;;;;;5005684;28;20065;-70
2022/01/23 00:19:56;;;;;;;9.55;6.63;;;8.10;74.30;;;;;;5008409;28;20194;-70
2022/01/23 00:22:28;;;;;;;10.75;6.50;;;8.10;74.50;;;;;;4997901;28;20022;-70
2022/01/23 00:32:47;;;;;;;11.77;7.43;;;8.10;74.70;;;;;;5000508;28;20030;-70
2022/01/23 00:35:13;;;;;;;10.10;6.88;;;8.00;74.70;;;;;;5000034;28;20069;-70
2022/01/23 00:37:39;;;;;;;11.52;7.10;;;8.00;74.80;;;;;;4998980;28;20110;-70
2022/01/23 00:40:05;;;;;;;12.32;6.88;;;8.00;74.80;;;;;;4996708;28;20042;-70
2022/01/23 00:42:31;;;;;;;11.95;7.78;;;7.90;74.70;;;;;;4995558;28;20034;-71
2022/01/23 00:45:12;;;;;;;12.40;8.63;;;7.80;74.80;;;;;;4998873;28;20027;-71
2022/01/23 00:47:38;;;;;;;11.13;7.45;;;7.70;74.90;;;;;;5005001;28;20033;-70
2022/01/23 00:50:04;;;;;;;11.40;8.20;;;7.70;75.40;;;;;;5004263;28;20042;-70
2022/01/23 00:52:30;;;;;;;12.82;8.05;;;7.70;75.90;;;;;;4995854;28;20053;-71
2022/01/23 00:54:55;;;;;;;12.75;7.90;;;7.70;75.70;;;;;;4995557;28;20053;-70
2022/01/23 00:57:21;;;;;;;11.48;8.25;;;7.70;75.80;;;;;;4995404;28;20113;-70
2022/01/23 00:59:47;;;;;;;11.50;8.25;;;7.70;75.80;;;;;;4997134;28;20038;-70
2022/01/23 01:02:13;;;;;;;13.55;8.75;;;7.50;75.80;;;;;;4997229;28;20023;-70
2022/01/23 01:04:38;;;;;;;14.88;9.88;;;7.60;76.50;;;;;;4997386;28;20030;-71
2022/01/23 01:07:04;;;;;;;15.32;9.65;;;7.50;75.80;;;;;;5005791;28;20037;-70
2022/01/23 01:09:31;;;;;;;15.43;9.07;;;7.40;75.90;;;;;;4998975;28;20030;-71
2022/01/23 01:11:59;;;;;;;12.35;8.98;;;7.30;76.20;;;;;;4999749;28;20413;-71
2022/01/23 01:15:10;;;;;;;10.85;7.50;;;7.30;76.60;;;;;;4999120;28;20052;-71
2022/01/23 01:31:03;;;;;;;11.00;7.20;;;7.70;75.80;;;;;;4995055;28;20061;-71
2022/01/23 01:33:44;;;;;;;12.70;8.75;;;7.70;77.20;;;;;;4995036;28;20026;-71
2022/01/23 01:38:45;;;;;;;12.50;7.43;;;7.80;76.20;;;;;;4996451;28;20026;-70
2022/01/23 01:41:10;;;;;;;14.20;8.27;;;7.80;76.00;;;;;;4996671;28;20121;-71
2022/01/23 01:43:36;;;;;;;10.57;7.63;;;7.80;75.90;;;;;;4996565;28;20105;-71
2022/01/23 01:46:03;;;;;;;10.52;7.43;;;7.80;76.00;;;;;;4995533;28;20041;-71
2022/01/23 01:48:29;;;;;;;9.65;7.60;;;7.80;76.10;;;;;;5009049;28;20428;-71
2022/01/23 01:50:56;;;;;;;9.73;7.13;;;7.90;76.10;;;;;;4997415;28;20026;-71
2022/01/23 01:53:23;;;;;;;14.30;7.78;;;7.80;75.70;;;;;;4996302;28;20085;-71
2022/01/23 01:55:55;;;;;;;10.90;7.15;;;7.80;76.10;;;;;;4996534;28;20026;-71
2022/01/23 02:02:41;;;;;;;12.85;7.93;;;7.90;76.00;;;;;;4995480;28;20116;-71
2022/01/23 02:09:32;;;;;;;15.82;8.90;;;7.60;75.80;;;;;;4997490;28;20515;-70
2022/01/23 02:22:58;;;;;;;11.25;7.00;;;7.30;77.00;;;;;;4995887;28;20025;-71
2022/01/23 02:55:16;;;;;;;9.43;6.68;;;7.40;76.30;;;;;;4995481;28;20549;-71
2022/01/23 03:00:15;;;;;;;15.45;7.32;;;7.40;76.30;;;;;;4995468;28;20155;-71
2022/01/23 03:02:47;;;;;;;10.32;6.78;;;7.30;76.40;;;;;;4994835;28;20030;-71
2022/01/23 03:05:23;;;;;;;10.63;6.75;;;7.30;76.70;;;;;;4995321;28;20030;-71
2022/01/23 03:08:23;;;;;;;10.55;6.57;;;7.30;77.20;;;;;;4995173;28;20497;-71
2022/01/23 03:10:59;;;;;;;8.77;6.22;;;7.40;77.00;;;;;;4994748;28;20030;-71
2022/01/23 03:26:52;;;;;;;9.02;6.32;;;7.20;77.20;;;;;;4999332;28;20030;-71
2022/01/23 03:31:57;;;;;;;9.05;6.13;;;7.20;77.10;;;;;;4998681;28;20082;-71
2022/01/23 03:34:26;;;;;;;8.55;6.03;;;7.20;77.30;;;;;;4997759;28;20152;-71
2022/01/23 03:36:52;;;;;;;10.25;6.13;;;7.30;77.40;;;;;;5014691;28;20053;-71
2022/01/23 03:39:18;;;;;;;10.07;6.05;;;7.30;77.30;;;;;;4998492;28;20031;-70
2022/01/23 03:41:45;;;;;;;8.88;6.28;;;7.40;77.10;;;;;;4998988;28;20109;-70
2022/01/23 03:44:14;;;;;;;9.32;5.75;;;7.30;76.50;;;;;;4998916;28;20073;-70
2022/01/23 03:49:33;;;;;;;8.55;5.72;;;7.20;76.80;;;;;;4999084;28;20038;-71
2022/01/23 03:52:10;;;;;;;11.43;6.57;;;7.20;77.30;;;;;;4997229;28;20489;-71
2022/01/23 03:54:37;;;;;;;8.65;5.55;;;7.20;77.20;;;;;;5011609;28;20101;-71
2022/01/23 03:57:04;;;;;;;8.45;5.20;;;7.30;77.50;;;;;;5001583;28;20381;-71
2022/01/23 03:59:30;;;;;;;8.48;5.00;;;7.30;77.30;;;;;;5001164;28;20469;-71
2022/01/23 04:01:56;;;;;;;9.32;5.80;;;7.40;77.20;;;;;;4999563;28;20030;-71
2022/01/23 04:04:38;;;;;;;8.60;5.80;;;7.40;77.20;;;;;;4998469;28;20076;-71
2022/01/23 04:07:18;;;;;;;8.27;6.00;;;7.50;77.20;;;;;;4997340;28;20105;-71
2022/01/23 04:09:45;;;;;;;7.93;5.07;;;7.50;77.20;;;;;;5011653;28;20045;-71
2022/01/23 04:12:23;;;;;;;6.90;5.18;;;7.50;76.90;;;;;;4997787;28;20047;-71
2022/01/23 04:14:56;;;;;;;8.40;5.43;;;7.60;77.30;;;;;;4998280;28;20106;-71
2022/01/23 04:33:41;;;;;;;7.32;4.82;;;7.50;76.70;;;;;;4997297;28;20085;-70
2022/01/23 05:00:50;;;;;;;7.07;5.10;;;7.20;76.80;;;;;;5010374;28;20141;-71
2022/01/23 05:05:58;;;;;;;7.95;5.30;;;7.20;76.80;;;;;;4996867;28;20486;-72
2022/01/23 05:08:23;;;;;;;8.38;5.47;;;7.30;77.00;;;;;;4995847;28;20029;-72
2022/01/23 05:10:49;;;;;;;7.95;5.18;;;7.20;76.50;;;;;;4997128;28;20026;-71
2022/01/23 05:13:14;;;;;;;8.52;5.85;;;7.20;77.00;;;;;;4995560;28;20058;-71
2022/01/23 05:15:40;;;;;;;8.95;5.13;;;7.20;77.10;;;;;;4994457;28;20094;-71
2022/01/23 05:18:06;;;;;;;9.38;5.47;;;7.30;77.40;;;;;;4996389;28;20019;-71
2022/01/23 05:20:32;;;;;;;11.15;5.68;;;7.30;77.10;;;;;;4996712;28;20035;-71
2022/01/23 05:23:03;;;;;;;7.88;5.00;;;7.30;76.60;;;;;;4997095;28;20027;-71
2022/01/23 05:25:31;;;;;;;8.27;5.68;;;7.30;76.80;;;;;;4997138;28;20022;-71
2022/01/23 05:27:57;;;;;;;8.57;5.25;;;7.40;77.00;;;;;;4994539;28;20025;-71
2022/01/23 05:30:24;;;;;;;8.55;5.63;;;7.30;76.50;;;;;;4995980;28;20030;-71
2022/01/23 05:32:50;;;;;;;10.93;5.75;;;7.30;76.50;;;;;;4996800;28;20034;-71
2022/01/23 05:35:21;;;;;;;10.45;5.45;;;7.20;76.50;;;;;;4996298;28;20053;-71
2022/01/23 05:37:48;;;;;;;11.60;6.22;;;7.20;76.50;;;;;;4996839;28;20058;-71
2022/01/23 05:40:15;;;;;;;7.78;5.55;;;7.20;77.20;;;;;;4996484;28;20030;-71
2022/01/23 05:42:41;;;;;;;8.65;5.80;;;7.10;76.60;;;;;;4993803;28;20117;-71
2022/01/23 05:45:08;;;;;;;11.10;6.38;;;7.00;78.10;;;;;;4995928;28;20073;-71
2022/01/23 05:47:34;;;;;;;9.68;6.43;;;6.90;77.00;;;;;;4996558;28;20085;-71
2022/01/23 05:50:00;;;;;;;10.32;6.18;;;6.80;77.30;;;;;;4994287;28;20504;-71
2022/01/23 05:52:26;;;;;;;9.40;5.43;;;6.80;77.60;;;;;;4996211;28;20037;-71
2022/01/23 05:54:52;;;;;;;11.05;6.65;;;6.80;78.20;;;;;;4994284;28;20555;-71
2022/01/23 05:57:18;;;;;;;9.50;5.90;;;6.90;77.80;;;;;;4995250;28;20022;-70
2022/01/23 05:59:43;;;;;;;9.65;5.68;;;6.90;78.00;;;;;;4996277;28;20034;-70
2022/01/23 06:02:09;;;;;;;8.13;5.43;;;7.00;78.40;;;;;;4996403;28;20022;-71
2022/01/23 06:04:34;;;;;;;9.90;6.78;;;7.10;78.00;;;;;;4996455;28;20041;-70
2022/01/23 06:07:00;;;;;;;12.40;6.93;;;7.00;76.90;;;;;;4993722;28;20516;-70
2022/01/23 06:09:27;;;;;;;10.38;6.78;;;7.00;77.20;;;;;;4995230;28;20029;-70
2022/01/23 06:11:53;;;;;;;8.68;6.38;;;7.00;77.40;;;;;;5004620;28;20022;-71
2022/01/23 06:14:19;;;;;;;9.98;6.18;;;6.90;77.40;;;;;;5002786;28;20113;-70
2022/01/23 06:16:45;;;;;;;9.82;6.82;;;6.90;77.70;;;;;;4996086;28;20161;-70
2022/01/23 06:19:11;;;;;;;7.32;5.38;;;6.80;77.70;;;;;;4996137;28;20117;-71
2022/01/23 06:21:36;;;;;;;10.48;6.13;;;6.90;78.20;;;;;;5008950;28;20029;-71
2022/01/23 06:24:14;;;;;;;9.40;6.32;;;6.90;77.70;;;;;;4996146;28;20097;-71
2022/01/23 06:26:43;;;;;;;8.13;5.60;;;7.00;77.80;;;;;;4995718;28;20489;-71
2022/01/23 06:29:10;;;;;;;7.85;5.40;;;6.90;77.60;;;;;;4995864;28;20025;-71
2022/01/23 06:31:37;;;;;;;9.38;5.80;;;6.90;78.80;;;;;;4995676;28;20058;-71
2022/01/23 06:34:02;;;;;;;7.20;5.50;;;6.90;77.80;;;;;;4994714;28;20073;-71
2022/01/23 06:36:28;;;;;;;8.07;5.55;;;7.10;77.90;;;;;;4994249;28;20058;-70
2022/01/23 06:38:54;;;;;;;7.13;5.00;;;7.00;77.60;;;;;;4995730;28;20039;-71
2022/01/23 06:41:19;;;;;;;9.18;4.78;;;7.10;77.60;;;;;;4995391;28;20058;-70
2022/01/23 06:43:45;;;;;;;6.80;4.90;;;7.10;77.30;;;;;;4995483;28;20041;-70
2022/01/23 06:46:11;;;;;;;7.38;5.13;;;7.10;77.40;;;;;;4995542;28;20022;-70
2022/01/23 06:48:36;;;;;;;8.98;5.63;;;7.10;77.30;;;;;;5008398;28;20034;-70
2022/01/23 06:51:02;;;;;;;8.15;4.90;;;7.00;76.70;;;;;;4995585;28;20057;-71
2022/01/23 06:53:28;;;;;;;6.28;4.60;;;7.00;77.40;;;;;;4995421;28;20057;-71
2022/01/23 06:55:53;;;;;;;8.88;5.05;;;7.10;77.70;;;;;;4995033;28;20627;-71
2022/01/23 06:58:19;;;;;;;7.97;4.68;;;7.10;77.60;;;;;;4995431;28;20079;-71
2022/01/23 07:00:45;;;;;;;7.18;4.57;;;7.00;77.00;;;;;;4992915;28;20042;-71
2022/01/23 07:03:12;;;;;;;6.60;4.78;;;7.10;77.80;;;;;;4995062;28;20535;-71
2022/01/23 07:05:38;;;;;;;6.60;4.40;;;7.10;77.50;;;;;;4995359;28;20037;-71
2022/01/23 07:08:04;;;;;;;7.80;4.90;;;7.10;77.40;;;;;;4995298;28;20030;-71
2022/01/23 07:10:30;;;;;;;7.88;5.00;;;7.00;77.00;;;;;;4994716;28;20057;-71
2022/01/23 07:12:55;;;;;;;8.10;5.03;;;7.00;77.30;;;;;;5000519;28;20037;-71
2022/01/23 07:15:21;;;;;;;8.45;5.00;;;7.00;77.50;;;;;;5006451;28;20060;-71
2022/01/23 07:17:47;;;;;;;6.93;4.97;;;6.90;77.20;;;;;;4997665;28;20025;-71
2022/01/23 07:20:12;;;;;;;9.43;4.93;;;6.90;77.50;;;;;;4994937;28;20424;-71
2022/01/23 07:22:38;;;;;;;7.47;4.80;;;6.90;78.40;;;;;;4994918;28;20488;-71
2022/01/23 07:25:05;;;;;;;8.85;5.00;;;6.90;77.40;;;;;;4992689;28;20034;-71
2022/01/23 07:27:36;;;;;;;6.28;4.85;;;6.90;77.50;;;;;;4993424;28;20097;-71
2022/01/23 07:30:05;;;;;;;7.18;5.13;;;7.00;77.70;;;;;;4994748;28;20030;-71
2022/01/23 07:32:31;;;;;;;6.78;4.78;;;7.00;77.60;;;;;;4995156;28;20049;-71
2022/01/23 07:34:57;;;;;;;7.00;4.45;;;7.00;77.30;;;;;;4994873;28;20062;-71
2022/01/23 07:37:22;;;;;;;6.38;4.53;;;6.90;77.10;;;;;;4995028;28;20531;-72
2022/01/23 07:39:48;;;;;;;5.95;4.50;;;6.90;77.60;;;;;;4992658;28;20043;-71
2022/01/23 07:42:14;;;;;;;6.63;4.65;;;6.90;77.30;;;;;;4994419;28;20026;-71
2022/01/23 07:44:39;;;;;;;7.55;5.22;;;6.70;76.90;;;;;;4994941;28;20048;-71
2022/01/23 07:47:06;;;;;;;8.50;5.00;;;6.60;77.90;;;;;;4999237;28;20493;-71
2022/01/23 07:49:32;;;;;;;7.60;5.00;;;6.70;78.10;;;;;;4994930;28;20038;-71
2022/01/23 07:52:01;;;;;;;5.85;4.32;;;6.60;77.80;;;;;;4993021;28;20085;-71
2022/01/23 07:54:26;;;;;;;8.02;4.70;;;6.60;78.20;;;;;;4993311;28;20034;-71
2022/01/23 07:56:52;;;;;;;7.13;5.10;;;6.60;78.20;;;;;;4994819;28;20026;-71
2022/01/23 07:59:18;;;;;;;7.80;5.15;;;6.60;77.90;;;;;;4994734;28;20030;-71
2022/01/23 08:01:43;;;;;;;7.72;5.03;;;6.60;77.80;;;;;;4994883;28;20064;-71
2022/01/23 08:04:09;;;;;;;11.45;5.88;;;6.60;78.10;;;;;;4994596;28;20087;-71
2022/01/23 08:06:44;;;;;;;10.18;5.32;;;6.50;78.20;;;;;;4992899;28;20037;-71
2022/01/23 08:09:11;;;;;;;7.45;4.70;;;6.50;78.20;;;;;;5000988;28;20045;-71
2022/01/23 08:11:36;;;;;;;7.47;4.82;;;6.50;78.50;;;;;;5003469;28;20026;-70
2022/01/23 08:14:02;;;;;;;6.93;4.78;;;6.60;78.80;;;;;;5010551;28;20087;-71
2022/01/23 08:16:28;;;;;;;8.40;5.00;;;6.60;78.50;;;;;;5011537;28;20076;-71
2022/01/23 08:18:54;;;;;;;7.10;5.00;;;6.70;78.00;;;;;;4996157;28;20026;-70
2022/01/23 08:21:19;;;;;;;8.68;5.43;;;6.70;77.80;;;;;;4997952;28;20038;-71
2022/01/23 08:23:45;;;;;;;8.38;5.47;;;6.70;78.10;;;;;;4997822;28;20037;-71
2022/01/23 08:26:11;;;;;;;11.45;6.32;;;6.60;77.70;;;;;;4998268;28;20109;-71
2022/01/23 08:28:36;;;;;;;10.52;6.15;;;6.50;77.50;;;;;;4998222;28;20523;-71
2022/01/23 08:31:02;;;;;;;10.15;5.60;;;6.50;78.60;;;;;;4997105;28;20030;-71
2022/01/23 08:33:27;;;;;;;14.65;7.63;;;6.50;78.50;;;;;;4999657;28;20042;-71
2022/01/23 08:35:56;;;;;;;11.95;6.25;;;6.50;77.90;;;;;;5000447;28;20050;-71
2022/01/23 08:38:22;;;;;;;9.75;5.18;;;6.50;78.40;;;;;;5000281;28;20030;-71
2022/01/23 08:41:49;;;;;;;10.82;6.35;;;6.50;78.70;;;;;;5000478;28;20515;-71
2022/01/23 08:43:34;;;;;;;9.00;5.70;;;6.50;79.00;;;;;;4999143;28;20530;-71
2022/01/23 08:46:00;;;;;;;13.15;6.82;;;6.60;78.90;;;;;;4997461;28;20026;-71
2022/01/23 08:48:25;;;;;;;13.93;6.80;;;6.70;78.90;;;;;;4999575;28;20015;-71
2022/01/23 08:50:51;;;;;;;11.77;6.13;;;6.60;78.00;;;;;;5000169;28;20516;-71
2022/01/23 08:53:16;;;;;;;9.13;5.88;;;6.60;79.00;;;;;;4998936;28;20034;-71
2022/01/23 08:55:42;;;;;;;11.85;6.45;;;6.60;79.20;;;;;;5000296;28;20117;-71
2022/01/23 08:58:08;;;;;;;12.25;7.15;;;6.70;78.80;;;;;;4995943;28;20038;-71
2022/01/23 09:00:34;;;;;;;11.02;6.80;;;6.70;78.80;;;;;;4997776;28;20042;-71
2022/01/23 09:02:59;;;;;;;11.73;6.43;;;6.60;78.60;;;;;;4999949;28;20054;-71
2022/01/23 09:05:26;;;;;;;15.43;8.35;;;6.70;78.80;;;;;;4996745;28;20105;-71
2022/01/23 09:07:52;;;;;;;12.77;7.07;;;6.60;78.10;;;;;;5001556;28;20066;-71
2022/01/23 09:10:26;;;;;;;12.30;6.88;;;6.50;78.80;;;;;;4996420;28;20026;-71
2022/01/23 09:13:06;;;;;;;14.40;8.38;;;6.50;78.80;;;;;;4997241;28;20030;-71
2022/01/23 09:15:32;;;;;;;11.55;7.05;;;6.50;78.80;;;;;;4999109;28;20069;-70
2022/01/23 09:17:58;;;;;;;12.30;7.35;;;6.50;79.10;;;;;;4997816;28;20026;-71
2022/01/23 09:20:23;;;;;;;12.70;7.57;;;6.50;79.00;;;;;;4998476;28;20041;-71
2022/01/23 09:22:49;;;;;;;11.63;7.60;;;6.50;79.00;;;;;;4999813;28;20061;-71
2022/01/23 09:25:15;;;;;;;14.75;8.10;;;6.50;79.00;;;;;;4995924;28;20026;-71
2022/01/23 09:27:40;;;;;;;15.50;7.72;;;6.40;79.00;;;;;;5011562;28;20113;-71
2022/01/23 09:30:17;;;;;;;14.77;8.20;;;6.50;79.30;;;;;;5000565;28;20466;-71
2022/01/23 09:32:43;;;;;;;11.35;7.13;;;6.60;79.30;;;;;;4999609;28;20026;-71
2022/01/23 09:35:10;;;;;;;11.05;6.85;;;6.60;79.20;;;;;;4999077;28;20030;-70
2022/01/23 09:37:36;;;;;;;11.77;7.00;;;6.80;79.80;;;;;;4998302;28;20030;-71
2022/01/23 09:40:05;;;;;;;10.63;7.07;;;6.80;79.10;;;;;;4996087;28;22748;-70
2022/01/23 09:42:36;;;;;;;11.73;7.22;;;6.80;78.80;;;;;;4997363;28;20058;-70
2022/01/23 09:45:09;;;;;;;15.65;9.00;;;6.80;78.40;;;;;;4996604;28;20034;-70
2022/01/23 09:47:36;;;;;;;16.10;8.48;;;6.70;78.10;;;;;;4996558;28;20041;-70
2022/01/23 09:50:04;;;;;;;14.82;9.15;;;6.60;78.60;;;;;;4995918;28;20109;-71
2022/01/23 09:52:34;;;;;;;16.67;9.35;;;6.70;78.50;;;;;;4996637;28;20100;-71
2022/01/23 09:55:08;;;;;;;15.65;7.95;;;6.70;78.70;;;;;;4993664;28;20034;-71
2022/01/23 09:57:37;;;;;;;13.40;8.45;;;6.70;79.10;;;;;;4993865;28;20018;-71
2022/01/23 10:00:07;;;;;;;14.02;8.63;;;6.70;78.40;;;;;;4996170;28;20159;-70
2022/01/23 10:02:33;;;;;;;15.70;8.77;;;6.60;78.70;;;;;;4996474;28;20534;-71
2022/01/23 10:04:59;;;;;;;14.55;8.50;;;6.70;78.80;;;;;;4996018;28;20125;-70
2022/01/23 10:07:25;;;;;;;13.38;7.95;;;6.60;78.70;;;;;;4996325;28;20026;-70
2022/01/23 10:10:06;;;;;;;15.65;8.32;;;6.80;79.60;;;;;;4993892;28;20480;-70
2022/01/23 10:12:33;;;;;;;12.30;8.25;;;6.90;78.90;;;;;;4997825;28;20457;-71
2022/01/23 10:14:58;;;;;;;14.52;8.20;;;6.80;78.40;;;;;;4998602;28;20031;-71
2022/01/23 10:17:24;;;;;;;13.98;8.40;;;6.90;78.90;;;;;;4998661;28;20038;-71
2022/01/23 10:19:50;;;;;;;17.63;10.13;;;6.90;78.40;;;;;;4997816;28;20497;-70
2022/01/23 10:22:17;;;;;;;14.60;9.60;;;6.80;78.20;;;;;;4995645;28;20033;-71
2022/01/23 10:24:43;;;;;;;17.17;10.27;;;6.90;78.90;;;;;;4993316;28;20061;-71
2022/01/23 10:27:09;;;;;;;17.65;10.32;;;7.00;78.20;;;;;;5007602;28;20069;-70
2022/01/23 10:29:37;;;;;;;16.23;9.50;;;6.80;77.90;;;;;;4999160;28;20022;-71
2022/01/23 10:32:18;;;;;;;17.00;9.82;;;6.90;78.60;;;;;;4997468;28;20030;-71
2022/01/23 10:34:49;;;;;;;17.08;10.23;;;6.80;78.30;;;;;;4995501;28;20127;-66
2022/01/23 10:37:33;;;;;;;17.88;10.32;;;6.80;78.20;;;;;;4995273;28;20137;-66
2022/01/23 10:40:05;;;;;;;17.80;10.07;;;6.90;78.40;;;;;;5020965;28;20480;-66
2022/01/23 10:47:58;;;;;;;18.77;10.15;;;7.20;77.50;;;;;;5008473;28;20120;-67
2022/01/23 10:50:25;;;;;;;20.77;11.70;;;7.10;77.40;;;;;;5005431;28;20080;-62
2022/01/23 10:52:53;;;;;;;18.90;11.48;;;7.30;78.40;;;;;;5005533;28;20065;-79
2022/01/23 10:55:24;;;;;;;24.42;12.27;;;7.20;77.40;;;;;;4996742;28;20105;-71
2022/01/23 10:57:53;;;;;;;24.67;13.02;;;7.10;77.10;;;;;;5009753;28;20054;-71
2022/01/23 11:00:26;;;;;;;27.58;14.73;;;7.00;77.10;;;;;;4993749;28;20046;-69
2022/01/23 11:02:53;;;;;;;22.07;12.90;;;7.00;77.70;;;;;;4996145;28;20048;-73
2022/01/23 11:05:19;;;;;;;24.77;14.10;;;7.00;78.20;;;;;;5000407;28;20481;-68
2022/01/23 11:07:49;;;;;;;23.65;13.20;;;6.90;77.40;;;;;;4994535;28;20471;-68
2022/01/23 11:10:20;;;;;;;24.67;14.38;;;6.90;77.50;;;;;;4994520;28;20049;-68
2022/01/23 11:18:12;;;;;;;26.92;14.73;;;6.90;77.70;;;;;;4997599;28;20037;-65
2022/01/23 11:20:47;;;;;;;28.98;14.98;;;6.90;78.10;;;;;;5004378;28;20084;-65
2022/01/23 11:23:27;;;;;;;23.00;12.77;;;6.80;77.70;;;;;;5001499;28;20077;-65
2022/01/23 11:25:52;;;;;;;25.95;13.75;;;7.00;78.50;;;;;;4994692;28;20121;-65
2022/01/23 11:28:19;;;;;;;27.13;14.40;;;7.00;78.10;;;;;;4994317;28;20109;-65
2022/01/23 11:30:48;;;;;;;27.70;14.70;;;6.90;77.60;;;;;;4991822;28;20022;-65
2022/01/23 11:33:17;;;;;;;32.38;16.23;;;7.00;77.90;;;;;;4994138;28;20496;-65
2022/01/23 11:35:46;;;;;;;28.92;15.13;;;7.10;77.70;;;;;;4994419;28;20917;-65
2022/01/23 11:38:16;;;;;;;29.73;16.45;;;7.00;77.60;;;;;;4994546;28;20512;-65
2022/01/23 11:54:44;;;;;;;32.35;15.57;;;6.70;78.10;;;;;;5011428;28;20049;-65
2022/01/23 11:57:40;;;;;;;30.80;15.77;;;6.80;78.30;;;;;;5000896;28;20559;-69
2022/01/23 12:00:23;;;;;;;28.17;15.88;;;6.70;77.80;;;;;;4997571;28;20074;-68
2022/01/23 12:03:13;;;;;;;28.95;15.25;;;6.70;78.30;;;;;;4998365;28;20033;-69
2022/01/23 12:05:42;;;;;;;28.85;15.02;;;6.60;78.40;;;;;;5003956;28;20042;-69
2022/01/23 12:08:31;;;;;;;29.20;15.65;;;6.70;78.40;;;;;;5007643;28;20037;-69
2022/01/23 12:16:52;;;;;;;22.77;13.40;;;6.70;78.50;;;;;;4998179;28;20030;-65
2022/01/23 12:19:48;;;;;;;27.27;14.77;;;6.80;78.30;;;;;;4997853;28;20052;-70
2022/01/23 12:22:35;;;;;;;25.90;13.90;;;6.80;78.50;;;;;;4997267;28;20128;-69
2022/01/23 12:25:14;;;;;;;24.25;13.45;;;6.80;78.60;;;;;;4996517;28;20049;-69
2022/01/23 12:27:41;;;;;;;25.35;14.02;;;6.90;78.60;;;;;;5010948;28;20108;-70
2022/01/23 12:30:14;;;;;;;25.60;13.90;;;6.80;79.30;;;;;;4996941;28;20113;-70
2022/01/23 12:32:40;;;;;;;29.75;14.65;;;6.80;78.60;;;;;;4998727;28;20033;-70
2022/01/23 12:35:08;;;;;;;24.35;14.48;;;6.90;78.70;;;;;;5004116;28;20033;-70
2022/01/23 12:38:05;;;;;;;26.52;14.80;;;6.90;78.60;;;;;;5009815;28;20031;-69
2022/01/23 12:40:34;;;;;;;23.88;13.35;;;6.90;78.10;;;;;;5000480;28;20046;-69
2022/01/23 12:43:18;;;;;;;23.17;12.50;;;6.80;78.30;;;;;;4996404;28;20500;-70
2022/01/23 12:45:45;;;;;;;27.60;13.82;;;6.90;79.00;;;;;;5009496;28;20030;-70
2022/01/23 12:48:26;;;;;;;22.65;12.20;;;6.90;78.60;;;;;;5011071;28;20108;-69
2022/01/23 12:50:58;;;;;;;22.58;12.88;;;6.90;78.90;;;;;;4998365;28;20031;-70
2022/01/23 12:53:45;;;;;;;19.75;11.40;;;6.90;78.90;;;;;;4996986;28;20022;-68
2022/01/23 12:56:17;;;;;;;24.30;12.45;;;7.00;79.30;;;;;;4994719;28;20112;-69
2022/01/23 12:58:49;;;;;;;22.75;11.63;;;7.00;78.60;;;;;;4999685;28;20084;-68
2022/01/23 13:01:21;;;;;;;25.38;13.25;;;6.90;78.40;;;;;;4997098;28;20042;-68
2022/01/23 13:03:58;;;;;;;20.58;11.32;;;6.80;78.60;;;;;;4995071;28;20034;-68
2022/01/23 13:06:35;;;;;;;23.88;13.85;;;6.80;79.20;;;;;;4998680;28;20058;-68
2022/01/23 13:17:51;;;;;;;20.38;10.93;;;6.90;79.20;;;;;;4999516;28;20447;-69
2022/01/23 13:26:47;;;;;;;24.30;11.90;;;6.80;78.80;;;;;;4996748;28;20041;-68
2022/01/23 13:32:08;;;;;;;22.67;10.90;;;6.80;78.50;;;;;;4999495;28;20050;-68
2022/01/23 13:34:41;;;;;;;20.52;10.73;;;6.70;79.00;;;;;;5011232;28;20109;-69
2022/01/23 13:37:14;;;;;;;24.65;12.60;;;6.70;79.80;;;;;;5018574;28;20050;-68
2022/01/23 13:39:54;;;;;;;21.48;12.02;;;6.70;79.30;;;;;;5009410;28;20061;-68
2022/01/23 13:42:48;;;;;;;20.58;10.75;;;6.70;79.40;;;;;;5009543;28;20034;-67
2022/01/23 13:53:33;;;;;;;20.60;10.52;;;6.70;79.30;;;;;;4995325;28;20485;-66
2022/01/23 13:58:52;;;;;;;21.60;9.93;;;6.70;79.70;;;;;;4998326;28;20083;-66
2022/01/23 14:03:54;;;;;;;26.85;12.35;;;6.80;79.80;;;;;;4995501;28;20026;-65
2022/01/23 14:06:20;;;;;;;24.77;10.95;;;6.80;79.10;;;;;;4996176;28;20033;-65
2022/01/23 14:09:22;;;;;;;24.85;11.23;;;6.70;79.40;;;;;;4995288;28;20116;-66
2022/01/23 14:11:49;;;;;;;21.55;10.52;;;6.60;79.70;;;;;;4957138;28;20629;-66
2022/01/23 14:14:20;;;;;;;19.30;9.57;;;6.60;79.80;;;;;;4955035;28;20031;-66
2022/01/23 14:16:48;;;;;;;23.42;11.45;;;6.60;79.80;;;;;;4955602;28;20035;-65
2022/01/23 14:19:17;;;;;;;22.40;10.95;;;6.60;79.80;;;;;;4951114;28;20437;-66
2022/01/23 14:21:46;;;;;;;25.20;12.10;;;6.60;79.70;;;;;;4954621;28;20529;-65
2022/01/23 14:24:39;;;;;;;22.98;11.38;;;6.60;79.70;;;;;;4953968;28;20454;-67
2022/01/23 14:27:09;;;;;;;24.05;10.75;;;6.60;79.90;;;;;;4954448;28;20117;-66
2022/01/23 14:29:50;;;;;;;21.92;11.40;;;6.50;79.90;;;;;;4954986;28;20031;-66
2022/01/23 14:32:31;;;;;;;28.77;12.68;;;6.60;80.60;;;;;;4954991;28;20093;-66
2022/01/23 14:35:06;;;;;;;19.80;9.65;;;6.60;80.30;;;;;;4954513;28;20413;-66
2022/01/23 14:37:32;;;;;;;22.38;11.02;;;6.50;79.80;;;;;;4953595;28;20038;-66
2022/01/23 14:40:27;;;;;;;17.48;9.27;;;6.50;80.50;;;;;;4951659;28;20578;-66
2022/01/23 14:43:11;;;;;;;19.65;9.98;;;6.60;80.30;;;;;;4937071;29;20529;-67
2022/01/23 14:45:44;;;;;;;20.77;9.80;;;6.60;80.30;;;;;;4971364;28;20042;-67
2022/01/23 14:48:12;;;;;;;19.45;10.13;;;6.60;80.40;;;;;;4997370;28;20030;-66
2022/01/23 14:50:42;;;;;;;20.70;9.93;;;6.50;80.40;;;;;;4997429;28;20101;-67
2022/01/23 14:53:10;;;;;;;20.27;9.48;;;6.50;80.40;;;;;;4996827;28;20118;-66
2022/01/23 14:55:38;;;;;;;20.00;10.18;;;6.50;80.70;;;;;;5001466;28;20097;-66
2022/01/23 14:58:04;;;;;;;21.90;10.73;;;6.50;80.70;;;;;;4993571;28;20048;-67
2022/01/23 15:00:32;;;;;;;19.42;10.50;;;6.50;81.70;;;;;;4992857;28;20096;-67
2022/01/23 15:03:02;;;;;;;19.15;10.27;;;6.50;80.70;;;;;;4995829;28;20064;-67
2022/01/23 15:05:30;;;;;;;22.15;10.70;;;6.60;81.10;;;;;;4994426;28;20030;-65
2022/01/23 15:07:58;;;;;;;20.52;10.25;;;6.60;80.50;;;;;;4994437;28;20054;-67
2022/01/23 15:10:23;;;;;;;23.40;10.23;;;6.50;80.00;;;;;;4994660;28;20069;-65
2022/01/23 15:12:49;;;;;;;19.40;9.32;;;6.40;80.20;;;;;;4992565;28;20070;-65
2022/01/23 15:15:14;;;;;;;20.92;9.00;;;6.40;80.60;;;;;;4993929;28;20157;-65
2022/01/23 15:17:40;;;;;;;18.25;8.80;;;6.50;80.70;;;;;;4993213;28;20030;-67
2022/01/23 15:20:07;;;;;;;17.27;8.13;;;6.40;80.20;;;;;;4994272;28;20108;-67
2022/01/23 15:22:33;;;;;;;16.02;8.18;;;6.50;80.80;;;;;;4993996;28;20026;-67
2022/01/23 15:25:00;;;;;;;18.80;8.32;;;6.60;80.60;;;;;;4992693;28;20485;-65
2022/01/23 15:27:26;;;;;;;15.65;8.07;;;6.60;80.50;;;;;;4992656;28;20030;-67
2022/01/23 15:29:52;;;;;;;16.55;7.93;;;6.60;80.60;;;;;;4994439;28;20030;-66
2022/01/23 15:32:18;;;;;;;18.77;8.85;;;6.70;80.90;;;;;;4994244;28;20085;-67
2022/01/23 15:34:44;;;;;;;18.70;8.68;;;6.80;80.70;;;;;;4992998;28;20062;-67
2022/01/23 15:37:13;;;;;;;18.83;9.05;;;6.80;80.10;;;;;;4993289;28;20513;-65
2022/01/23 15:39:39;;;;;;;18.98;9.57;;;6.80;80.20;;;;;;5007325;28;20041;-65
2022/01/23 15:42:05;;;;;;;16.25;8.38;;;6.70;80.00;;;;;;4994140;28;20038;-65
2022/01/23 15:44:31;;;;;;;18.35;9.70;;;6.80;80.60;;;;;;4994313;28;20030;-65
2022/01/23 15:46:57;;;;;;;20.48;10.15;;;6.80;80.30;;;;;;4993884;28;20035;-67
2022/01/23 15:49:22;;;;;;;20.92;10.13;;;6.70;79.60;;;;;;4994626;28;20108;-66
2022/01/23 15:51:48;;;;;;;25.80;11.90;;;6.50;79.70;;;;;;4991542;28;20072;-65
2022/01/23 15:54:16;;;;;;;23.45;11.35;;;6.50;80.00;;;;;;4998012;28;20400;-65
2022/01/23 15:56:43;;;;;;;22.25;10.85;;;6.40;80.50;;;;;;4998118;28;20054;-65
2022/01/23 15:59:08;;;;;;;24.67;11.45;;;6.40;80.80;;;;;;4992658;28;20109;-65
2022/01/23 16:01:37;;;;;;;29.23;12.50;;;6.30;80.80;;;;;;4996090;28;20690;-65
2022/01/23 16:04:03;;;;;;;29.48;14.13;;;6.20;80.80;;;;;;4993224;28;20040;-65
2022/01/23 16:06:29;;;;;;;29.58;13.38;;;6.40;81.50;;;;;;4994964;28;20030;-65
2022/01/23 16:08:55;;;;;;;28.13;12.70;;;6.30;81.20;;;;;;4996390;28;20030;-65
2022/01/23 16:11:21;;;;;;;30.67;14.05;;;6.40;81.20;;;;;;4997573;28;20117;-65
2022/01/23 16:13:46;;;;;;;29.00;13.27;;;6.40;80.90;;;;;;4993794;28;20039;-65
2022/01/23 16:16:12;;;;;;;35.90;17.38;;;6.40;80.60;;;;;;4993049;28;20134;-65
2022/01/23 16:18:38;;;;;;;31.85;14.48;;;6.30;80.50;;;;;;4990573;28;20026;-65
2022/01/23 16:21:04;;;;;;;29.55;13.77;;;6.20;81.40;;;;;;4993393;28;20046;-65
2022/01/23 16:23:29;;;;;;;39.08;17.50;;;6.30;81.70;;;;;;4994356;28;20031;-65